Time,TemperatureF,DewpointF,PressureIn,WindDirection,WindDirectionDegrees,WindSpeedMPH,WindSpeedGustMPH,Humidity,HourlyPrecipIn,Conditions,Clouds,dailyrainin,SoftwareType,DateUTC
2013-04-11 00:03:00,39.0,38.0,-100.00,East,85,0.0,1.0,95,0.00,,,-99.99,,2013-04-11 04:03:00,
2013-04-11 00:13:00,39.0,37.0,-100.00,SE,130,0.0,1.0,95,0.00,,,-99.99,,2013-04-11 04:13:00,
2013-04-11 00:22:00,39.0,38.0,-100.00,WSW,240,1.0,1.0,95,0.00,,,-99.99,,2013-04-11 04:22:00,
2013-04-11 00:33:00,39.0,38.0,-100.00,WSW,255,0.0,1.0,95,0.00,,,-99.99,,2013-04-11 04:33:00,
2013-04-11 00:42:00,39.0,38.0,-100.00,North,5,0.0,1.0,95,0.00,,,-99.99,,2013-04-11 04:42:00,
2013-04-11 00:52:00,39.0,38.0,-100.00,WNW,300,0.0,1.0,95,0.00,,,-99.99,,2013-04-11 04:52:00,
2013-04-11 01:02:00,38.0,37.0,-100.00,SE,140,0.0,1.0,95,0.00,,,-99.99,,2013-04-11 05:02:00,
2013-04-11 01:13:00,38.0,37.0,-100.00,SSE,165,0.0,1.0,95,0.00,,,-99.99,,2013-04-11 05:13:00,
2013-04-11 01:22:00,37.0,36.0,-100.00,East,85,1.0,1.0,95,0.00,,,-99.99,,2013-04-11 05:22:00,
2013-04-11 01:32:00,37.0,36.0,-100.00,NNE,15,0.0,1.0,96,0.00,,,-99.99,,2013-04-11 05:32:00,
2013-04-11 01:42:00,37.0,36.0,-100.00,East,100,0.0,1.0,96,0.00,,,-99.99,,2013-04-11 05:42:00,
2013-04-11 01:52:00,38.0,37.0,-100.00,SE,140,1.0,2.0,96,0.00,,,-99.99,,2013-04-11 05:52:00,
2013-04-11 02:02:00,38.0,37.0,-100.00,SW,215,1.0,1.0,96,0.00,,,-99.99,,2013-04-11 06:02:00,
2013-04-11 02:12:00,38.0,37.0,-100.00,SW,215,0.0,1.0,96,0.00,,,-99.99,,2013-04-11 06:12:00,
2013-04-11 02:22:00,38.0,37.0,-100.00,SW,215,1.0,1.0,96,0.00,,,-99.99,,2013-04-11 06:22:00,
2013-04-11 02:32:00,38.0,37.0,-100.00,NNE,25,0.0,1.0,96,0.00,,,-99.99,,2013-04-11 06:32:00,
2013-04-11 02:42:00,36.0,35.0,-100.00,North,355,0.0,1.0,96,0.00,,,-99.99,,2013-04-11 06:42:00,
2013-04-11 02:52:00,36.0,35.0,-100.00,NW,315,0.0,1.0,96,0.00,,,-99.99,,2013-04-11 06:52:00,
2013-04-11 03:02:00,36.0,36.0,-100.00,SSW,205,0.0,1.0,96,0.00,,,-99.99,,2013-04-11 07:02:00,
2013-04-11 03:12:00,37.0,36.0,-100.00,NW,325,1.0,1.0,96,0.00,,,-99.99,,2013-04-11 07:12:00,
2013-04-11 03:22:00,37.0,36.0,-100.00,NNW,330,0.0,1.0,96,0.00,,,-99.99,,2013-04-11 07:22:00,
2013-04-11 03:32:00,36.0,36.0,-100.00,ENE,75,0.0,1.0,96,0.00,,,-99.99,,2013-04-11 07:32:00,
2013-04-11 03:42:00,36.0,35.0,-100.00,ESE,105,0.0,1.0,96,0.00,,,-99.99,,2013-04-11 07:42:00,
2013-04-11 03:52:00,35.0,34.0,-100.00,NW,310,0.0,1.0,96,0.00,,,-99.99,,2013-04-11 07:52:00,
2013-04-11 04:03:00,36.0,35.0,-100.00,SSE,160,1.0,1.0,96,0.00,,,-99.99,,2013-04-11 08:03:00,
2013-04-11 04:12:00,35.0,35.0,-100.00,SSW,210,0.0,1.0,96,0.00,,,-99.99,,2013-04-11 08:12:00,
2013-04-11 04:22:00,35.0,34.0,-100.00,East,90,1.0,1.0,96,0.00,,,-99.99,,2013-04-11 08:22:00,
2013-04-11 04:32:00,35.0,34.0,-100.00,NNW,340,1.0,1.0,96,0.00,,,-99.99,,2013-04-11 08:32:00,
2013-04-11 04:42:00,34.0,33.0,-100.00,East,80,1.0,1.0,96,0.00,,,-99.99,,2013-04-11 08:42:00,
2013-04-11 04:52:00,33.0,33.0,-100.00,North,355,1.0,2.0,96,0.00,,,-99.99,,2013-04-11 08:52:00,
2013-04-11 05:02:00,33.0,32.0,-100.00,ENE,75,1.0,2.0,96,0.00,,,-99.99,,2013-04-11 09:02:00,
2013-04-11 05:12:00,33.0,32.0,-100.00,NNW,335,3.0,5.0,96,0.00,,,-99.99,,2013-04-11 09:12:00,
2013-04-11 05:22:00,33.0,32.0,-100.00,NW,325,6.0,10.0,96,0.00,,,-99.99,,2013-04-11 09:22:00,
2013-04-11 05:33:00,33.0,32.0,-100.00,NW,325,6.0,9.0,96,0.00,,,-99.99,,2013-04-11 09:33:00,
2013-04-11 05:43:00,33.0,32.0,-100.00,NW,325,6.0,9.0,96,0.00,,,-99.99,,2013-04-11 09:43:00,
2013-04-11 05:52:00,33.0,32.0,-100.00,NNW,330,3.0,7.0,95,0.00,,,-99.99,,2013-04-11 09:52:00,
2013-04-11 06:02:00,33.0,32.0,-100.00,NNW,345,7.0,12.0,95,0.00,,,-99.99,,2013-04-11 10:02:00,
2013-04-11 06:12:00,32.0,31.0,-100.00,NW,310,4.0,12.0,93,0.00,,,-99.99,,2013-04-11 10:12:00,
2013-04-11 06:23:00,32.0,30.0,-100.00,NW,320,6.0,10.0,90,0.00,,,-99.99,,2013-04-11 10:23:00,
2013-04-11 06:32:00,32.0,28.0,-100.00,NNW,345,7.0,15.0,83,0.00,,,-99.99,,2013-04-11 10:32:00,
2013-04-11 06:42:00,32.0,28.0,-100.00,NNW,345,7.0,15.0,83,0.00,,,-99.99,,2013-04-11 10:42:00,
2013-04-11 06:52:00,32.0,24.0,-100.00,North,0,8.0,12.0,74,0.00,,,-99.99,,2013-04-11 10:52:00,
2013-04-11 07:03:00,32.0,24.0,-100.00,North,0,8.0,12.0,74,0.00,,,-99.99,,2013-04-11 11:03:00,
2013-04-11 07:12:00,31.0,22.0,-100.00,NNW,345,9.0,14.0,67,0.00,,,-99.99,,2013-04-11 11:12:00,
2013-04-11 07:23:00,31.0,21.0,-100.00,NNW,340,11.0,16.0,65,0.00,,,-99.99,,2013-04-11 11:23:00,
2013-04-11 07:32:00,31.0,21.0,-100.00,NNW,345,8.0,15.0,66,0.00,,,-99.99,,2013-04-11 11:32:00,
2013-04-11 07:42:00,31.0,21.0,-100.00,NNW,345,9.0,12.0,64,0.00,,,-99.99,,2013-04-11 11:42:00,
2013-04-11 07:52:00,32.0,20.0,-100.00,NNW,345,9.0,12.0,62,0.00,,,-99.99,,2013-04-11 11:52:00,
2013-04-11 08:02:00,32.0,21.0,-100.00,North,355,9.0,12.0,62,0.00,,,-99.99,,2013-04-11 12:02:00,
2013-04-11 08:12:00,33.0,21.0,-100.00,North,-999,-999.0,-999.0,60,0.00,,,-99.99,,2013-04-11 12:12:00,
2013-04-11 08:22:00,34.0,22.0,-100.00,NNW,340,7.0,12.0,60,0.00,,,-99.99,,2013-04-11 12:22:00,
2013-04-11 08:32:00,34.0,21.0,-100.00,NW,320,6.0,11.0,58,0.00,,,-99.99,,2013-04-11 12:32:00,
2013-04-11 08:42:00,35.0,21.0,-100.00,NNW,345,4.0,9.0,56,0.00,,,-99.99,,2013-04-11 12:42:00,
2013-04-11 08:52:00,35.0,22.0,-100.00,North,350,4.0,8.0,57,0.00,,,-99.99,,2013-04-11 12:52:00,
2013-04-11 09:02:00,36.0,19.0,-100.00,East,100,3.0,7.0,50,0.00,,,-99.99,,2013-04-11 13:02:00,
2013-04-11 09:12:00,36.0,20.0,-100.00,SE,125,2.0,4.0,51,0.00,,,-99.99,,2013-04-11 13:12:00,
2013-04-11 09:23:00,38.0,20.0,-100.00,East,90,1.0,4.0,47,0.00,,,-99.99,,2013-04-11 13:23:00,
2013-04-11 09:32:00,37.0,17.0,-100.00,North,5,1.0,4.0,44,0.00,,,-99.99,,2013-04-11 13:32:00,
2013-04-11 09:43:00,37.0,18.0,-100.00,NW,320,6.0,8.0,45,0.00,,,-99.99,,2013-04-11 13:43:00,
2013-04-11 09:53:00,37.0,20.0,-100.00,NNW,345,5.0,11.0,49,0.00,,,-99.99,,2013-04-11 13:53:00,
2013-04-11 10:03:00,37.0,18.0,-100.00,NNW,330,6.0,13.0,45,0.00,,,-99.99,,2013-04-11 14:03:00,
2013-04-11 10:12:00,38.0,17.0,-100.00,NNW,335,7.0,12.0,43,0.00,,,-99.99,,2013-04-11 14:12:00,
2013-04-11 10:22:00,38.0,16.0,-100.00,NNW,345,6.0,11.0,40,0.00,,,-99.99,,2013-04-11 14:22:00,
2013-04-11 10:32:00,38.0,15.0,-100.00,NNW,345,9.0,16.0,38,0.00,,,-99.99,,2013-04-11 14:32:00,
2013-04-11 10:42:00,39.0,17.0,-100.00,NW,305,7.0,14.0,39,0.00,,,-99.99,,2013-04-11 14:42:00,
2013-04-11 10:52:00,39.0,15.0,-100.00,NNW,330,10.0,21.0,37,0.00,,,-99.99,,2013-04-11 14:52:00,
2013-04-11 11:02:00,38.0,14.0,-100.00,North,355,9.0,17.0,36,0.00,,,-99.99,,2013-04-11 15:02:00,
2013-04-11 11:12:00,38.0,14.0,-100.00,North,10,6.0,14.0,37,0.00,,,-99.99,,2013-04-11 15:12:00,
2013-04-11 11:22:00,37.0,10.0,-100.00,NNW,335,14.0,20.0,31,0.00,,,-99.99,,2013-04-11 15:22:00,
2013-04-11 11:32:00,37.0,11.0,-100.00,NNW,345,11.0,17.0,33,0.00,,,-99.99,,2013-04-11 15:32:00,
2013-04-11 11:43:00,38.0,13.0,-100.00,NNW,330,8.0,15.0,35,0.00,,,-99.99,,2013-04-11 15:43:00,
2013-04-11 11:52:00,38.0,13.0,-100.00,North,0,8.0,14.0,36,0.00,,,-99.99,,2013-04-11 15:52:00,
2013-04-11 12:02:00,38.0,13.0,-100.00,NNW,330,9.0,12.0,35,0.00,,,-99.99,,2013-04-11 16:02:00,
2013-04-11 12:13:00,38.0,14.0,-100.00,North,350,4.0,11.0,35,0.00,,,-99.99,,2013-04-11 16:13:00,
2013-04-11 12:23:00,38.0,13.0,-100.00,North,350,7.0,14.0,35,0.00,,,-99.99,,2013-04-11 16:23:00,
2013-04-11 12:32:00,38.0,13.0,-100.00,NW,315,6.0,12.0,36,0.00,,,-99.99,,2013-04-11 16:32:00,
2013-04-11 12:42:00,38.0,12.0,-100.00,North,355,7.0,11.0,34,0.00,,,-99.99,,2013-04-11 16:42:00,
2013-04-11 12:52:00,39.0,12.0,-100.00,NNW,335,6.0,14.0,32,0.00,,,-99.99,,2013-04-11 16:52:00,
2013-04-11 13:02:00,38.0,9.0,-100.00,NNW,340,7.0,15.0,28,0.00,,,-99.99,,2013-04-11 17:02:00,
2013-04-11 13:13:00,38.0,8.0,-100.00,NW,320,8.0,14.0,27,0.00,,,-99.99,,2013-04-11 17:13:00,
2013-04-11 13:23:00,38.0,8.0,-100.00,North,350,7.0,14.0,27,0.00,,,-99.99,,2013-04-11 17:23:00,
2013-04-11 13:33:00,40.0,9.0,-100.00,NNE,25,2.0,11.0,28,0.00,,,-99.99,,2013-04-11 17:33:00,
2013-04-11 13:43:00,40.0,9.0,-100.00,NNW,345,7.0,14.0,27,0.00,,,-99.99,,2013-04-11 17:43:00,
2013-04-11 13:52:00,39.0,7.0,-100.00,NNW,340,10.0,15.0,26,0.00,,,-99.99,,2013-04-11 17:52:00,
2013-04-11 14:03:00,39.0,8.0,-100.00,NNW,345,8.0,13.0,27,0.00,,,-99.99,,2013-04-11 18:03:00,
2013-04-11 14:13:00,39.0,7.0,-100.00,NNW,335,6.0,16.0,26,0.00,,,-99.99,,2013-04-11 18:13:00,
2013-04-11 14:23:00,39.0,6.0,-100.00,North,350,7.0,14.0,25,0.00,,,-99.99,,2013-04-11 18:23:00,
2013-04-11 14:33:00,40.0,10.0,-100.00,NW,315,2.0,12.0,29,0.00,,,-99.99,,2013-04-11 18:33:00,
2013-04-11 14:42:00,39.0,10.0,-100.00,North,350,6.0,12.0,29,0.00,,,-99.99,,2013-04-11 18:42:00,
2013-04-11 14:52:00,40.0,12.0,-100.00,NW,325,3.0,9.0,31,0.00,,,-99.99,,2013-04-11 18:52:00,
2013-04-11 15:04:00,40.0,13.0,-100.00,NW,325,4.0,10.0,32,0.00,,,-99.99,,2013-04-11 19:04:00,
2013-04-11 15:14:00,39.0,10.0,-100.00,North,0,4.0,13.0,30,0.00,,,-99.99,,2013-04-11 19:14:00,
2013-04-11 15:22:00,40.0,10.0,-100.00,NW,325,7.0,14.0,28,0.00,,,-99.99,,2013-04-11 19:22:00,
2013-04-11 15:32:00,40.0,12.0,-100.00,North,5,1.0,9.0,31,0.00,,,-99.99,,2013-04-11 19:32:00,
2013-04-11 15:43:00,39.0,9.0,-100.00,NW,320,4.0,12.0,27,0.00,,,-99.99,,2013-04-11 19:43:00,
2013-04-11 15:52:00,39.0,7.0,-100.00,NNW,330,8.0,12.0,26,0.00,,,-99.99,,2013-04-11 19:52:00,
2013-04-11 16:03:00,40.0,9.0,-100.00,NNW,330,4.0,12.0,28,0.00,,,-99.99,,2013-04-11 20:03:00,
2013-04-11 16:13:00,39.0,10.0,-100.00,NNW,345,6.0,13.0,29,0.00,,,-99.99,,2013-04-11 20:13:00,
2013-04-11 16:22:00,39.0,10.0,-100.00,NNW,340,8.0,12.0,29,0.00,,,-99.99,,2013-04-11 20:22:00,
2013-04-11 16:33:00,39.0,11.0,-100.00,NNW,335,6.0,12.0,31,0.00,,,-99.99,,2013-04-11 20:33:00,
2013-04-11 16:42:00,39.0,10.0,-100.00,North,355,6.0,11.0,29,0.00,,,-99.99,,2013-04-11 20:42:00,
2013-04-11 16:52:00,39.0,9.0,-100.00,NNW,345,7.0,11.0,29,0.00,,,-99.99,,2013-04-11 20:52:00,
2013-04-11 17:03:00,39.0,8.0,-100.00,NNW,335,7.0,11.0,27,0.00,,,-99.99,,2013-04-11 21:03:00,
2013-04-11 17:22:00,38.0,8.0,-100.00,North,0,7.0,14.0,27,0.00,,,-99.99,,2013-04-11 21:22:00,
2013-04-11 17:33:00,38.0,9.0,-100.00,NNW,340,8.0,14.0,28,0.00,,,-99.99,,2013-04-11 21:33:00,
2013-04-11 17:42:00,38.0,10.0,-100.00,NNW,335,7.0,13.0,29,0.00,,,-99.99,,2013-04-11 21:42:00,
2013-04-11 17:53:00,38.0,10.0,-100.00,North,355,6.0,15.0,30,0.00,,,-99.99,,2013-04-11 21:53:00,
2013-04-11 18:03:00,38.0,10.0,-100.00,NW,325,7.0,11.0,30,0.00,,,-99.99,,2013-04-11 22:03:00,
2013-04-11 18:13:00,38.0,10.0,-100.00,North,350,6.0,12.0,31,0.00,,,-99.99,,2013-04-11 22:13:00,
2013-04-11 18:23:00,38.0,10.0,-100.00,NNW,330,6.0,12.0,31,0.00,,,-99.99,,2013-04-11 22:23:00,
2013-04-11 18:33:00,37.0,10.0,-100.00,North,0,7.0,11.0,32,0.00,,,-99.99,,2013-04-11 22:33:00,
2013-04-11 18:44:00,37.0,10.0,-100.00,North,0,8.0,14.0,31,0.00,,,-99.99,,2013-04-11 22:44:00,
2013-04-11 18:52:00,37.0,10.0,-100.00,North,350,6.0,10.0,32,0.00,,,-99.99,,2013-04-11 22:52:00,
2013-04-11 19:03:00,37.0,11.0,-100.00,NNW,330,2.0,7.0,33,0.00,,,-99.99,,2013-04-11 23:03:00,
2013-04-11 19:13:00,36.0,11.0,-100.00,North,355,3.0,9.0,33,0.00,,,-99.99,,2013-04-11 23:13:00,
2013-04-11 19:23:00,36.0,11.0,-100.00,NNW,335,2.0,5.0,34,0.00,,,-99.99,,2013-04-11 23:23:00,
2013-04-11 19:32:00,36.0,11.0,-100.00,NNW,335,2.0,5.0,34,0.00,,,-99.99,,2013-04-11 23:32:00,
2013-04-11 19:42:00,36.0,11.0,-100.00,NNW,335,2.0,5.0,34,0.00,,,-99.99,,2013-04-11 23:42:00,
2013-04-11 19:53:00,36.0,11.0,-100.00,North,350,2.0,6.0,36,0.00,,,-99.99,,2013-04-11 23:53:00,
2013-04-11 20:02:00,36.0,12.0,-100.00,North,350,4.0,6.0,36,0.00,,,-99.99,,2013-04-12 00:02:00,
2013-04-11 20:12:00,35.0,11.0,-100.00,North,355,4.0,6.0,36,0.00,,,-99.99,,2013-04-12 00:12:00,
2013-04-11 20:22:00,35.0,12.0,-100.00,North,355,6.0,9.0,37,0.00,,,-99.99,,2013-04-12 00:22:00,
2013-04-11 20:32:00,35.0,12.0,-100.00,NNW,340,4.0,9.0,37,0.00,,,-99.99,,2013-04-12 00:32:00,
2013-04-11 20:42:00,35.0,12.0,-100.00,NNW,345,6.0,9.0,38,0.00,,,-99.99,,2013-04-12 00:42:00,
2013-04-11 20:52:00,35.0,12.0,-100.00,North,355,5.0,7.0,37,0.00,,,-99.99,,2013-04-12 00:52:00,
2013-04-11 21:02:00,35.0,12.0,-100.00,NNW,335,4.0,7.0,38,0.00,,,-99.99,,2013-04-12 01:02:00,
2013-04-11 21:12:00,35.0,12.0,-100.00,NNW,330,4.0,8.0,37,0.00,,,-99.99,,2013-04-12 01:12:00,
2013-04-11 21:22:00,35.0,12.0,-100.00,NNW,335,3.0,7.0,37,0.00,,,-99.99,,2013-04-12 01:22:00,
2013-04-11 21:32:00,35.0,12.0,-100.00,NNW,330,3.0,7.0,38,0.00,,,-99.99,,2013-04-12 01:32:00,
2013-04-11 21:42:00,35.0,12.0,-100.00,NNW,340,3.0,5.0,39,0.00,,,-99.99,,2013-04-12 01:42:00,
2013-04-11 21:52:00,35.0,12.0,-100.00,North,10,1.0,2.0,38,0.00,,,-99.99,,2013-04-12 01:52:00,
2013-04-11 22:03:00,35.0,13.0,-100.00,NNW,340,1.0,2.0,39,0.00,,,-99.99,,2013-04-12 02:03:00,
2013-04-11 22:12:00,35.0,15.0,-100.00,East,80,1.0,1.0,45,0.00,,,-99.99,,2013-04-12 02:12:00,
2013-04-11 22:22:00,34.0,16.0,-100.00,North,355,1.0,2.0,46,0.00,,,-99.99,,2013-04-12 02:22:00,
2013-04-11 22:32:00,34.0,17.0,-100.00,NE,45,1.0,3.0,49,0.00,,,-99.99,,2013-04-12 02:32:00,
2013-04-11 22:42:00,33.0,15.0,-100.00,ENE,75,2.0,4.0,47,0.00,,,-99.99,,2013-04-12 02:42:00,
2013-04-11 22:52:00,33.0,16.0,-100.00,SW,230,0.0,2.0,49,0.00,,,-99.99,,2013-04-12 02:52:00,
2013-04-11 23:02:00,33.0,17.0,-100.00,East,90,1.0,2.0,51,0.00,,,-99.99,,2013-04-12 03:02:00,
2013-04-11 23:12:00,33.0,17.0,-100.00,SSE,160,0.0,1.0,51,0.00,,,-99.99,,2013-04-12 03:12:00,
2013-04-11 23:22:00,33.0,16.0,-100.00,NNW,345,1.0,3.0,49,0.00,,,-99.99,,2013-04-12 03:22:00,
2013-04-11 23:33:00,33.0,15.0,-100.00,NNE,20,1.0,4.0,47,0.00,,,-99.99,,2013-04-12 03:33:00,
2013-04-11 23:43:00,33.0,14.0,-100.00,NNW,330,1.0,2.0,45,0.00,,,-99.99,,2013-04-12 03:43:00,
2013-04-11 23:52:00,33.0,14.0,-100.00,East,90,1.0,5.0,45,0.00,,,-99.99,,2013-04-12 03:52:00,